createdAt,value
2023-04-16T00:00:36.141Z,63.05
2023-04-16T00:05:33.340Z,61.97
2023-04-16T00:08:02.857Z,55.55
2023-04-16T00:10:30.691Z,48.17
2023-04-16T00:12:58.386Z,53.85
2023-04-16T00:15:28.231Z,54.95
2023-04-16T00:17:58.079Z,61.38
2023-04-16T00:20:27.805Z,61.13
2023-04-16T00:22:57.273Z,59.35
2023-04-16T00:25:25.955Z,53.45
2023-04-16T00:27:53.870Z,55.72
2023-04-16T00:30:26.752Z,52.97
2023-04-16T00:32:58.100Z,55.20
2023-04-16T00:35:26.055Z,48.40
2023-04-16T00:40:22.794Z,45.72
2023-04-16T00:42:50.320Z,56.05
2023-04-16T00:45:17.892Z,51.55
2023-04-16T00:47:48.313Z,44.75
2023-04-16T00:50:21.616Z,54.35
2023-04-16T00:52:49.406Z,58.17
2023-04-16T00:55:18.779Z,47.40
2023-04-16T00:57:47.908Z,48.78
2023-04-16T01:00:16.365Z,48.65
2023-04-16T01:02:44.120Z,59.83
2023-04-16T01:05:11.726Z,51.58
2023-04-16T01:07:39.204Z,53.22
2023-04-16T01:10:07.132Z,55.50
2023-04-16T01:15:03.288Z,54.10
2023-04-16T01:17:31.095Z,58.20
2023-04-16T01:19:59.669Z,57.13
2023-04-16T01:22:28.532Z,58.53
2023-04-16T01:24:55.997Z,52.95
2023-04-16T01:27:24.297Z,55.13
2023-04-16T01:29:51.943Z,56.75
2023-04-16T01:32:24.957Z,61.47
2023-04-16T01:34:52.479Z,51.10
2023-04-16T01:37:20.009Z,51.83
2023-04-16T01:39:48.805Z,45.05
2023-04-16T01:42:16.266Z,64.70
2023-04-16T01:44:44.125Z,53.45
2023-04-16T01:47:11.508Z,61.65
2023-04-16T01:49:39.068Z,48.10
2023-04-16T01:52:08.321Z,49.17
2023-04-16T01:54:35.839Z,62.13
2023-04-16T01:57:04.686Z,53.22
2023-04-16T01:59:32.249Z,48.53
2023-04-16T02:02:01.568Z,60.78
2023-04-16T02:04:29.096Z,48.05
2023-04-16T02:06:56.529Z,58.40
2023-04-16T02:09:24.442Z,46.33
2023-04-16T02:14:21.920Z,51.55
2023-04-16T02:16:49.453Z,56.38
2023-04-16T02:19:40.791Z,55.00
2023-04-16T02:22:09.743Z,49.47
2023-04-16T02:24:37.241Z,45.72
2023-04-16T02:27:08.508Z,48.08
2023-04-16T02:29:37.411Z,51.47
2023-04-16T02:32:12.114Z,61.50
2023-04-16T02:34:43.267Z,57.25
2023-04-16T02:37:11.264Z,53.20
2023-04-16T02:39:39.118Z,59.65
2023-04-16T02:42:06.635Z,58.33
2023-04-16T02:44:34.194Z,64.85
2023-04-16T02:47:02.998Z,54.60
2023-04-16T02:49:30.997Z,52.63
2023-04-16T02:51:58.525Z,53.45
2023-04-16T02:54:25.999Z,57.47
2023-04-16T02:56:53.527Z,58.08
2023-04-16T02:59:21.107Z,55.80
2023-04-16T03:01:48.817Z,52.88
2023-04-16T03:04:17.864Z,58.65
2023-04-16T03:06:45.463Z,57.95
2023-04-16T03:09:13.208Z,57.70
2023-04-16T03:11:40.660Z,51.15
2023-04-16T03:14:08.218Z,55.40
2023-04-16T03:16:36.354Z,53.00
2023-04-16T03:19:03.939Z,54.60
2023-04-16T03:21:33.245Z,55.25
2023-04-16T03:24:00.736Z,51.65
2023-04-16T03:26:28.266Z,58.13
2023-04-16T03:28:56.405Z,50.40
2023-04-16T03:31:25.076Z,56.75
2023-04-16T03:33:53.469Z,51.92
2023-04-16T03:36:21.003Z,60.03
2023-04-16T03:38:50.036Z,62.47
2023-04-16T03:41:18.180Z,62.45
2023-04-16T03:43:45.790Z,58.17
2023-04-16T03:46:13.272Z,58.08
2023-04-16T03:48:40.780Z,70.18
2023-04-16T03:51:08.544Z,69.97
2023-04-16T03:53:36.087Z,69.60
2023-04-16T03:56:05.153Z,75.32
2023-04-16T03:58:32.634Z,69.40
2023-04-16T04:01:00.072Z,78.35
2023-04-16T04:03:27.934Z,82.07
2023-04-16T04:05:56.169Z,71.90
2023-04-16T04:08:29.794Z,79.50
2023-04-16T04:10:57.340Z,79.68
2023-04-16T04:13:27.071Z,75.70
2023-04-16T04:15:54.962Z,82.80
2023-04-16T04:18:23.539Z,81.18
2023-04-16T04:20:50.989Z,81.68
2023-04-16T04:23:21.233Z,81.78
2023-04-16T04:25:48.989Z,79.25
2023-04-16T04:28:18.688Z,84.95
2023-04-16T04:30:47.651Z,68.85
2023-04-16T04:33:15.153Z,75.57
2023-04-16T04:35:43.104Z,77.45
2023-04-16T04:38:10.693Z,74.95
2023-04-16T04:40:38.248Z,78.40
2023-04-16T04:43:05.703Z,79.22
2023-04-16T04:45:33.916Z,77.05
2023-04-16T04:48:02.720Z,80.57
2023-04-16T04:50:30.782Z,87.05
2023-04-16T04:52:58.523Z,73.07
2023-04-16T04:55:25.981Z,74.57
2023-04-16T04:57:53.486Z,77.13
2023-04-16T05:00:21.301Z,76.72
2023-04-16T05:02:54.245Z,82.22
2023-04-16T05:05:23.336Z,77.03
2023-04-16T05:07:50.897Z,75.60
2023-04-16T05:10:18.349Z,74.35
2023-04-16T05:12:48.822Z,75.47
2023-04-16T05:15:16.517Z,69.95
2023-04-16T05:17:44.027Z,70.65
2023-04-16T05:20:11.586Z,70.90
2023-04-16T05:22:40.522Z,76.55
2023-04-16T05:25:08.317Z,65.45
2023-04-16T05:27:36.264Z,77.80
2023-04-16T05:32:31.113Z,72.57
2023-04-16T05:34:58.601Z,63.08
2023-04-16T05:37:26.054Z,72.65
2023-04-16T05:39:54.818Z,76.00
2023-04-16T05:42:22.297Z,67.40
2023-04-16T05:44:49.729Z,69.65
2023-04-16T05:47:17.494Z,64.70
2023-04-16T05:49:44.996Z,66.78
2023-04-16T05:52:12.494Z,78.25
2023-04-16T05:54:39.983Z,63.88
2023-04-16T05:57:08.821Z,62.45
2023-04-16T05:59:36.376Z,70.70
2023-04-16T06:02:03.982Z,77.13
2023-04-16T06:04:31.606Z,74.05
2023-04-16T06:06:59.050Z,60.30
2023-04-16T06:09:26.527Z,60.67
2023-04-16T06:11:53.964Z,59.60
2023-04-16T06:14:22.781Z,61.53
2023-04-16T06:16:50.193Z,63.40
2023-04-16T06:19:17.664Z,71.97
2023-04-16T06:21:45.369Z,68.40
2023-04-16T06:24:13.201Z,72.10
2023-04-16T06:26:40.727Z,68.35
2023-04-16T06:29:08.418Z,65.25
2023-04-16T06:34:04.815Z,64.50
2023-04-16T06:36:32.239Z,77.57
2023-04-16T06:38:59.686Z,63.20
2023-04-16T06:41:27.194Z,62.47
2023-04-16T06:43:54.613Z,62.13
2023-04-16T06:46:22.065Z,64.80
2023-04-16T06:48:49.550Z,50.28
2023-04-16T06:51:18.388Z,57.95
2023-04-16T06:53:45.931Z,59.13
2023-04-16T06:56:13.366Z,59.72
2023-04-16T06:58:41.024Z,60.45
2023-04-16T07:01:10.078Z,53.65
2023-04-16T07:03:37.983Z,52.88
2023-04-16T07:06:05.595Z,51.97
2023-04-16T07:08:34.423Z,51.53
2023-04-16T07:11:01.888Z,48.53
2023-04-16T07:13:29.320Z,51.42
2023-04-16T07:15:56.825Z,48.83
2023-04-16T07:18:24.362Z,53.50
2023-04-16T07:20:51.803Z,49.28
2023-04-16T07:23:19.290Z,57.50
2023-04-16T07:25:48.005Z,51.33
2023-04-16T07:28:16.582Z,57.25
2023-04-16T07:30:44.179Z,51.45
2023-04-16T07:33:11.728Z,53.90
2023-04-16T07:35:39.249Z,50.92
2023-04-16T07:38:06.799Z,55.22
2023-04-16T07:40:34.257Z,46.88
2023-04-16T07:43:03.046Z,50.10
2023-04-16T07:45:30.521Z,44.67
2023-04-16T07:47:58.004Z,47.03
2023-04-16T07:50:25.963Z,45.63
2023-04-16T07:55:20.701Z,55.33
2023-04-16T07:57:48.184Z,45.60
2023-04-16T08:00:17.244Z,59.67
2023-04-16T08:02:45.372Z,47.05
2023-04-16T08:05:13.652Z,52.80
2023-04-16T08:07:41.125Z,49.92
2023-04-16T08:10:09.309Z,49.95
2023-04-16T08:12:36.883Z,49.08
2023-04-16T08:15:04.615Z,52.88
2023-04-16T08:17:34.421Z,49.75
2023-04-16T08:20:01.959Z,49.60
2023-04-16T08:22:29.461Z,46.92
2023-04-16T08:24:56.911Z,41.88
2023-04-16T08:27:24.412Z,46.53
2023-04-16T08:29:51.875Z,47.42
2023-04-16T08:32:19.382Z,50.28
2023-04-16T08:34:48.242Z,44.22
2023-04-16T08:37:15.765Z,44.08
2023-04-16T08:39:43.167Z,47.40
2023-04-16T08:42:13.881Z,45.58
2023-04-16T08:44:44.621Z,43.00
2023-04-16T08:47:13.536Z,40.97
2023-04-16T08:49:44.403Z,43.72
2023-04-16T08:52:15.716Z,45.17
2023-04-16T08:54:45.405Z,49.63
2023-04-16T08:57:13.498Z,45.03
2023-04-16T08:59:41.243Z,43.63
2023-04-16T09:02:09.956Z,42.45
2023-04-16T09:04:37.663Z,51.17
2023-04-16T09:07:05.658Z,45.00
2023-04-16T09:12:03.494Z,53.63
2023-04-16T09:14:31.703Z,43.17
2023-04-16T09:17:01.114Z,45.33
2023-04-16T09:19:28.725Z,42.47
2023-04-16T09:21:56.167Z,45.38
2023-04-16T09:24:23.838Z,48.28
2023-04-16T09:26:52.711Z,50.63
2023-04-16T09:29:35.757Z,42.28
2023-04-16T09:32:05.654Z,46.58
2023-04-16T09:34:34.238Z,41.33
2023-04-16T09:37:17.323Z,49.25
2023-04-16T09:39:45.357Z,43.83
2023-04-16T09:42:12.953Z,43.03
2023-04-16T09:44:40.508Z,46.47
2023-04-16T09:47:10.337Z,47.42
2023-04-16T09:49:42.119Z,48.28
2023-04-16T09:52:10.440Z,40.33
2023-04-16T09:54:37.805Z,47.20
2023-04-16T09:57:06.608Z,42.15
2023-04-16T09:59:36.332Z,40.92
2023-04-16T10:02:14.813Z,43.30
2023-04-16T10:04:48.013Z,40.80
2023-04-16T10:07:15.514Z,42.72
2023-04-16T10:09:42.962Z,40.30
2023-04-16T10:12:10.633Z,39.10
2023-04-16T10:14:38.020Z,40.70
2023-04-16T10:17:06.041Z,35.92
2023-04-16T10:19:33.739Z,36.25
2023-04-16T10:22:02.636Z,35.67
2023-04-16T10:24:31.061Z,35.38
2023-04-16T10:26:58.707Z,35.80
2023-04-16T10:29:27.743Z,37.20
2023-04-16T10:31:55.858Z,34.17
2023-04-16T10:34:23.641Z,34.38
2023-04-16T10:39:22.406Z,40.42
2023-04-16T10:41:50.225Z,34.97
2023-04-16T10:44:18.637Z,40.17
2023-04-16T10:46:49.327Z,34.83
2023-04-16T10:49:17.804Z,33.78
2023-04-16T10:51:53.287Z,32.88
2023-04-16T10:54:22.810Z,32.42
2023-04-16T10:56:51.054Z,32.33
2023-04-16T10:59:22.040Z,31.90
2023-04-16T11:01:52.613Z,33.60
2023-04-16T11:04:30.579Z,35.88
2023-04-16T11:07:01.775Z,31.95
2023-04-16T11:10:02.263Z,32.58
2023-04-16T11:12:34.788Z,37.05
2023-04-16T11:15:02.849Z,28.80
2023-04-16T11:17:31.760Z,33.60
2023-04-16T11:19:59.355Z,28.33
2023-04-16T11:22:26.781Z,30.33
2023-04-16T11:24:57.806Z,25.77
2023-04-16T11:27:25.443Z,27.45
2023-04-16T11:30:01.810Z,23.98
2023-04-16T11:32:31.857Z,23.80
2023-04-16T11:34:59.821Z,22.40
2023-04-16T11:37:33.148Z,23.25
2023-04-16T11:40:01.301Z,23.05
2023-04-16T11:42:29.402Z,24.42
2023-04-16T11:44:57.734Z,26.00
2023-04-16T11:47:27.068Z,27.88
2023-04-16T11:49:54.552Z,24.40
2023-04-16T11:52:30.780Z,23.95
2023-04-16T11:54:58.623Z,36.35
2023-04-16T12:00:02.585Z,23.33
2023-04-16T12:02:42.233Z,27.77
2023-04-16T12:05:27.428Z,25.63
2023-04-16T12:07:55.092Z,26.92
2023-04-16T12:10:22.537Z,27.25
2023-04-16T12:12:49.950Z,33.05
2023-04-16T12:15:17.776Z,26.02
2023-04-16T12:17:46.687Z,27.13
2023-04-16T12:20:15.341Z,26.80
2023-04-16T12:22:45.890Z,25.92
2023-04-16T12:25:14.261Z,32.15
2023-04-16T12:27:42.246Z,25.48
2023-04-16T12:30:10.596Z,25.88
2023-04-16T12:32:38.040Z,24.92
2023-04-16T12:35:07.290Z,25.58
2023-04-16T12:37:35.312Z,27.25
2023-04-16T12:40:03.707Z,28.05
2023-04-16T12:42:35.698Z,32.83
2023-04-16T12:45:04.130Z,25.27
2023-04-16T12:47:31.674Z,27.70
2023-04-16T12:49:59.372Z,31.13
2023-04-16T12:52:28.152Z,29.58
2023-04-16T12:54:55.639Z,29.05
2023-04-16T12:57:28.465Z,29.98
2023-04-16T12:59:56.541Z,25.00
2023-04-16T13:02:24.421Z,33.25
2023-04-16T13:04:52.183Z,33.53
2023-04-16T13:07:19.769Z,27.20
2023-04-16T13:09:48.484Z,23.15
2023-04-16T13:12:16.017Z,24.42
2023-04-16T13:14:45.028Z,26.98
2023-04-16T13:17:12.641Z,33.53
2023-04-16T13:19:40.023Z,23.55
2023-04-16T13:22:07.444Z,26.33
2023-04-16T13:24:34.958Z,25.23
2023-04-16T13:27:03.768Z,26.45
2023-04-16T13:29:31.198Z,25.58
2023-04-16T13:31:58.719Z,24.98
2023-04-16T13:34:26.256Z,24.13
2023-04-16T13:36:53.672Z,27.20
2023-04-16T13:39:21.160Z,25.95
2023-04-16T13:41:48.962Z,21.92
2023-04-16T13:44:17.699Z,24.45
2023-04-16T13:46:47.555Z,22.08
2023-04-16T13:49:15.119Z,23.92
2023-04-16T13:51:43.944Z,23.45
2023-04-16T13:54:11.383Z,24.48
2023-04-16T13:56:38.752Z,24.17
2023-04-16T13:59:06.186Z,19.45
2023-04-16T14:01:34.917Z,22.90
2023-04-16T14:04:06.100Z,21.13
2023-04-16T14:06:34.063Z,20.30
2023-04-16T14:09:01.855Z,22.48
2023-04-16T14:13:56.705Z,20.83
2023-04-16T14:16:24.203Z,22.50
2023-04-16T14:18:53.209Z,21.63
2023-04-16T14:21:20.584Z,19.83
2023-04-16T14:23:47.974Z,22.67
2023-04-16T14:26:15.499Z,20.05
2023-04-16T14:28:43.043Z,20.58
2023-04-16T14:31:10.528Z,18.77
2023-04-16T14:33:37.946Z,25.45
2023-04-16T14:36:07.376Z,24.20
2023-04-16T14:38:34.793Z,19.70
2023-04-16T14:41:02.251Z,17.92
2023-04-16T14:43:29.625Z,21.95
2023-04-16T14:45:58.134Z,25.52
2023-04-16T14:48:25.741Z,22.55
2023-04-16T14:50:54.367Z,23.58
2023-04-16T14:53:23.819Z,18.30
2023-04-16T14:55:51.300Z,28.23
2023-04-16T14:58:18.876Z,21.75
2023-04-16T15:00:46.288Z,19.27
2023-04-16T15:03:13.937Z,24.25
2023-04-16T15:05:41.454Z,21.30
2023-04-16T15:08:08.841Z,22.88
2023-04-16T15:10:37.983Z,21.15
2023-04-16T15:13:05.806Z,20.67
2023-04-16T15:18:00.660Z,20.17
2023-04-16T15:20:28.119Z,26.17
2023-04-16T15:22:55.540Z,16.60
2023-04-16T15:25:23.357Z,24.52
2023-04-16T15:27:52.201Z,17.27
2023-04-16T15:30:19.774Z,19.50
2023-04-16T15:32:47.649Z,17.95
2023-04-16T15:35:15.460Z,21.60
2023-04-16T15:37:42.825Z,20.05
2023-04-16T15:40:10.647Z,18.23
2023-04-16T15:42:38.090Z,17.67
2023-04-16T15:45:07.364Z,15.75
2023-04-16T15:47:35.167Z,17.48
2023-04-16T15:52:30.668Z,17.73
2023-04-16T15:54:58.070Z,18.92
2023-04-16T15:57:25.477Z,20.00
2023-04-16T16:00:05.937Z,17.92
2023-04-16T16:02:35.985Z,15.57
2023-04-16T16:05:04.080Z,15.65
2023-04-16T16:09:58.737Z,25.80
2023-04-16T16:12:26.133Z,16.75
2023-04-16T16:14:53.798Z,15.32
2023-04-16T16:17:21.574Z,16.50
2023-04-16T16:22:20.370Z,21.15
2023-04-16T16:24:48.848Z,14.43
2023-04-16T16:27:16.273Z,18.08
2023-04-16T16:29:43.708Z,17.02
2023-04-16T16:32:11.362Z,17.05
2023-04-16T16:34:38.790Z,14.73
2023-04-16T16:37:06.446Z,17.15
2023-04-16T16:39:36.632Z,17.42
2023-04-16T16:42:05.866Z,17.83
2023-04-16T16:44:33.302Z,20.00
2023-04-16T16:47:00.849Z,28.75
2023-04-16T16:49:28.281Z,16.02
2023-04-16T16:51:55.711Z,17.17
2023-04-16T16:54:23.098Z,21.48
2023-04-16T16:56:51.944Z,17.75
2023-04-16T16:59:19.403Z,20.98
2023-04-16T17:01:46.887Z,24.05
2023-04-16T17:04:14.459Z,20.70
2023-04-16T17:06:45.690Z,21.33
2023-04-16T17:09:13.514Z,20.00
2023-04-16T17:11:41.141Z,17.33
2023-04-16T17:14:09.953Z,20.85
2023-04-16T17:16:37.436Z,17.20
2023-04-16T17:19:04.885Z,18.83
2023-04-16T17:21:33.178Z,22.20
2023-04-16T17:24:00.552Z,17.45
2023-04-16T17:26:28.003Z,19.92
2023-04-16T17:28:57.397Z,19.77
2023-04-16T17:31:27.182Z,19.90
2023-04-16T17:33:54.764Z,18.27
2023-04-16T17:36:23.119Z,25.92
2023-04-16T17:38:51.094Z,22.17
2023-04-16T17:43:47.523Z,18.75
2023-04-16T17:46:15.023Z,21.80
2023-04-16T17:48:44.562Z,22.55
2023-04-16T17:51:12.301Z,21.75
2023-04-16T17:53:39.737Z,20.77
2023-04-16T17:56:07.607Z,21.52
2023-04-16T18:08:27.330Z,20.33
2023-04-16T18:10:55.271Z,19.55
2023-04-16T18:13:23.015Z,19.88
2023-04-16T18:15:50.626Z,19.90
2023-04-16T18:18:18.601Z,23.33
2023-04-16T18:23:13.462Z,22.50
2023-04-16T18:25:42.551Z,24.75
2023-04-16T18:28:10.057Z,23.45
2023-04-16T18:30:40.510Z,22.30
2023-04-16T18:33:34.209Z,22.08
2023-04-16T18:35:55.677Z,21.65
2023-04-16T18:38:23.194Z,19.92
2023-04-16T18:40:52.110Z,23.92
2023-04-16T18:43:19.696Z,24.05
2023-04-16T18:45:47.263Z,21.83
2023-04-16T18:48:14.896Z,22.77
2023-04-16T18:50:42.334Z,29.13
2023-04-16T18:53:09.838Z,24.48
2023-04-16T18:55:37.632Z,28.73
2023-04-16T18:58:06.666Z,30.42
2023-04-16T19:00:34.295Z,33.47
2023-04-16T19:05:36.801Z,35.88
2023-04-16T19:08:04.337Z,33.05
2023-04-16T19:10:31.748Z,32.33
2023-04-16T19:12:59.448Z,34.35
2023-04-16T19:15:33.161Z,30.92
2023-04-16T19:18:02.151Z,38.83
2023-04-16T19:20:29.634Z,34.97
2023-04-16T19:22:57.151Z,39.75
2023-04-16T19:25:24.766Z,39.65
2023-04-16T19:27:52.361Z,37.25
2023-04-16T19:30:20.052Z,36.15
2023-04-16T19:32:48.914Z,35.03
2023-04-16T19:35:16.472Z,34.20
2023-04-16T19:37:44.349Z,38.38
2023-04-16T19:42:39.301Z,35.80
2023-04-16T19:45:07.743Z,30.52
2023-04-16T19:47:35.480Z,34.15
2023-04-16T19:52:37.163Z,34.92
2023-04-16T19:55:04.737Z,33.83
2023-04-16T19:57:32.256Z,37.97
2023-04-16T19:59:59.784Z,35.42
2023-04-16T20:02:27.408Z,41.15
2023-04-16T20:04:54.960Z,42.67
2023-04-16T20:07:22.399Z,43.33
2023-04-16T20:09:51.357Z,43.28
2023-04-16T20:12:19.041Z,49.15
2023-04-16T20:14:47.263Z,52.38
2023-04-16T20:17:19.557Z,41.33
2023-04-16T20:19:49.266Z,52.17
2023-04-16T20:22:18.468Z,48.83
2023-04-16T20:24:47.903Z,47.08
2023-04-16T20:27:19.359Z,53.38
2023-04-16T20:29:46.843Z,52.67
2023-04-16T20:32:14.332Z,55.55
2023-04-16T20:34:42.810Z,50.38
2023-04-16T20:37:10.496Z,47.70
2023-04-16T20:39:40.021Z,46.90
2023-04-16T20:42:10.349Z,49.53
2023-04-16T20:44:41.402Z,54.85
2023-04-16T20:47:08.895Z,53.08
2023-04-16T20:49:36.433Z,46.05
2023-04-16T20:52:04.063Z,47.92
2023-04-16T20:54:31.628Z,48.38
2023-04-16T20:56:59.205Z,59.65
2023-04-16T20:59:26.661Z,54.15
2023-04-16T21:01:56.564Z,47.55
2023-04-16T21:04:24.481Z,55.97
2023-04-16T21:09:21.106Z,43.83
2023-04-16T21:11:48.965Z,59.80
2023-04-16T21:14:16.567Z,48.50
2023-04-16T21:16:44.010Z,46.75
2023-04-16T21:19:12.803Z,47.85
2023-04-16T21:21:41.709Z,45.20
2023-04-16T21:24:09.311Z,44.30
2023-04-16T21:26:36.736Z,44.15
2023-04-16T21:29:06.741Z,42.85
2023-04-16T21:31:34.284Z,48.92
2023-04-16T21:34:01.732Z,42.50
2023-04-16T21:36:31.972Z,44.72
2023-04-16T21:38:59.350Z,45.88
2023-04-16T21:41:26.868Z,54.03
2023-04-16T21:43:54.462Z,48.88
2023-04-16T21:46:22.485Z,42.50
2023-04-16T21:48:50.827Z,56.75
2023-04-16T21:51:19.983Z,42.90
2023-04-16T21:53:48.937Z,43.05
2023-04-16T21:56:16.353Z,48.63
2023-04-16T21:58:43.928Z,42.60
2023-04-16T22:01:11.606Z,49.40
2023-04-16T22:03:40.358Z,38.65
2023-04-16T22:06:08.691Z,40.58
2023-04-16T22:08:36.145Z,43.90
2023-04-16T22:11:05.342Z,42.10
2023-04-16T22:13:33.267Z,40.00
2023-04-16T22:18:32.948Z,39.38
2023-04-16T22:21:05.750Z,48.92
2023-04-16T22:23:33.184Z,37.00
2023-04-16T22:26:02.567Z,41.33
2023-04-16T22:28:31.373Z,44.60
2023-04-16T22:30:58.844Z,45.75
2023-04-16T22:33:26.412Z,47.10
2023-04-16T22:35:54.067Z,43.05
2023-04-16T22:38:21.970Z,41.58
2023-04-16T22:40:49.700Z,44.67
2023-04-16T22:43:17.596Z,42.45
2023-04-16T22:48:15.560Z,36.45
2023-04-16T22:50:45.946Z,41.80
2023-04-16T22:53:13.536Z,42.45
2023-04-16T22:55:40.945Z,55.08
2023-04-16T22:58:08.368Z,46.55
2023-04-16T23:00:35.941Z,38.35
2023-04-16T23:03:03.593Z,43.92
2023-04-16T23:05:32.616Z,45.72
2023-04-16T23:08:00.070Z,56.60
2023-04-16T23:10:28.106Z,48.13
2023-04-16T23:15:22.928Z,52.80
2023-04-16T23:17:50.514Z,46.95
2023-04-16T23:20:18.042Z,53.72
2023-04-16T23:22:46.982Z,46.03
2023-04-16T23:25:14.448Z,45.15
2023-04-16T23:27:41.848Z,43.03
2023-04-16T23:30:09.738Z,43.03
2023-04-16T23:32:37.188Z,46.28
2023-04-16T23:35:04.909Z,46.63
2023-04-16T23:37:35.374Z,46.05
2023-04-16T23:40:04.770Z,39.88
2023-04-16T23:42:32.229Z,52.38
2023-04-16T23:44:59.999Z,40.80
2023-04-16T23:47:27.450Z,41.90
2023-04-16T23:49:54.899Z,44.72
2023-04-16T23:52:22.377Z,40.45
2023-04-16T23:54:49.857Z,45.53
2023-04-16T23:57:18.660Z,55.55
2023-04-16T23:59:46.178Z,48.95
